Massillon, Iowa
Current Conditions -  °F | °C
As of 7:52 PM on Wednesday 22 Oct 2014 (Local Time) from KDVN Reporting Station
Clear Clear  
Wind Chill: 43°   Ceiling: Unl
Heat Index: 46°   Visibility: 10mi
Dew Point: 34°   Wind: 6mph
Humidity: 63%   Direction: 140°SE
Pressure: 30.23"   Gusts: NA
Location:  41.8589°N, 90.9568°W
Report Text: KDVN 230052Z AUTO 14005KT 10SM CLR 08/01 A3023 RMK AO2 SLP243 T00780011 TSNO
Loading
Personal Weather Stations






























Interactive Weather Map
Tropical Storm Tracking
New forecast layout! Learn more

10-Day Weather Forecast

Advertisements
Track Severe Weather on mobile